LSZB/BRN METAR and TAF weather

Enter ICAO airport designator
Station Type Date Time Source
LSZB METAR 2021/09/25 02:20 UTC NOAA

LSZB 250220Z AUTO VRB01KT 9999 FEW001 09/09 Q1019


Station Type Date Time Source
LSZB Decoded METAR 2021/09/25 02:20 UTC NOAA

Bern / Belp , Switzerland (LSZB) 46-55N 007-30E
Sep 24, 2021 - 10:20 PM EDT / 2021.09.25 0220 UTC
Wind: Variable at 1 MPH (1 KT):0
Visibility: greater than 7 mile(s):0
Sky conditions: mostly clear
Temperature: 48 F (9 C)
Dew Point: 48 F (9 C)
Relative Humidity: 100%
Pressure (altimeter): 30.09 in. Hg (1019 hPa)
ob: LSZB 250220Z AUTO VRB01KT 9999 FEW001 09/09 Q1019
cycle: 2

Station Type Date Time Source
LSZB TAF 2014/12/22 20:03 UTC NOAA

TAF
AMD TAF
AMD LSZB 222054Z 2220/2224 CNL

Example: see airport list